Time;durP1;ratioP1;P1;durP2;ratioP2;P2;SDS_P1;SDS_P2;PMS_P1;PMS_P2;Temp;Humidity;BMP_temperature;BMP_pressure;BME280_temperature;BME280_humidity;BME280_pressure;Samples;Min_cycle;Max_cycle;Signal;HPM_P1;HPM_P2
2023/04/18 03:01:22;;;;;;;6.70;3.00;;;7.60;95.70;;;;;;5802136;23;88447;-67
2023/04/18 03:03:48;;;;;;;5.03;2.75;;;7.60;95.40;;;;;;4873214;28;87868;-67
2023/04/18 03:06:14;;;;;;;5.57;2.83;;;7.60;95.10;;;;;;4874250;28;88720;-67
2023/04/18 03:08:40;;;;;;;5.88;2.80;;;7.50;95.30;;;;;;4876629;28;89247;-67
2023/04/18 03:11:05;;;;;;;5.50;2.55;;;7.50;95.80;;;;;;4872786;28;88954;-67
2023/04/18 03:13:32;;;;;;;5.68;2.53;;;7.50;96.20;;;;;;4877135;28;87562;-67
2023/04/18 03:15:58;;;;;;;5.90;2.60;;;7.40;96.50;;;;;;4878552;28;87390;-67
2023/04/18 03:18:23;;;;;;;5.72;2.60;;;7.30;96.60;;;;;;4877490;28;88504;-68
2023/04/18 03:20:49;;;;;;;5.30;2.33;;;7.30;96.70;;;;;;4873894;28;88373;-68
2023/04/18 03:23:15;;;;;;;4.50;2.42;;;7.20;96.70;;;;;;4886149;28;87363;-68
2023/04/18 03:25:40;;;;;;;7.28;2.90;;;7.20;96.80;;;;;;4887144;28;87051;-67
2023/04/18 03:28:06;;;;;;;6.53;2.70;;;7.10;97.30;;;;;;4871933;28;89159;-68
2023/04/18 03:30:32;;;;;;;5.28;2.42;;;7.10;97.70;;;;;;4874005;28;87444;-68
2023/04/18 03:32:58;;;;;;;6.82;2.33;;;7.10;97.90;;;;;;4854201;28;88275;-67
2023/04/18 03:35:24;;;;;;;4.50;2.50;;;7.00;97.80;;;;;;4896308;28;87589;-67
2023/04/18 03:37:50;;;;;;;7.03;2.60;;;7.00;97.70;;;;;;4888894;28;88175;-68
2023/04/18 03:40:15;;;;;;;6.00;2.33;;;7.00;98.30;;;;;;4875129;28;88839;-68
2023/04/18 03:42:41;;;;;;;5.13;2.10;;;7.00;98.30;;;;;;4879854;28;87645;-68
2023/04/18 03:45:07;;;;;;;4.53;2.35;;;7.00;98.10;;;;;;4880586;28;87265;-67
2023/04/18 03:47:33;;;;;;;5.43;2.72;;;6.90;98.40;;;;;;4884933;28;88265;-68
2023/04/18 03:49:58;;;;;;;6.65;2.80;;;6.90;99.30;;;;;;4893051;28;89491;-67
2023/04/18 03:52:24;;;;;;;6.40;3.22;;;6.80;99.50;;;;;;4880312;28;86982;-67
2023/04/18 03:54:50;;;;;;;6.97;3.13;;;6.80;99.90;;;;;;4888206;28;87265;-67
2023/04/18 03:57:15;;;;;;;5.10;2.38;;;6.80;99.90;;;;;;4877323;28;88653;-67
2023/04/18 03:59:42;;;;;;;4.93;2.78;;;6.70;99.90;;;;;;4883436;28;89928;-67
2023/04/18 04:02:08;;;;;;;9.00;2.75;;;6.70;99.90;;;;;;4874606;28;87526;-67
2023/04/18 04:04:34;;;;;;;7.68;3.60;;;6.70;99.90;;;;;;4875475;28;87788;-67
2023/04/18 04:06:59;;;;;;;5.43;2.83;;;6.70;99.90;;;;;;4867144;28;88681;-67
2023/04/18 04:09:25;;;;;;;7.43;3.05;;;6.70;99.90;;;;;;4865344;28;87380;-68
2023/04/18 04:11:51;;;;;;;10.98;4.45;;;6.80;99.90;;;;;;4870993;28;87666;-68
2023/04/18 04:14:17;;;;;;;10.63;4.13;;;6.80;99.90;;;;;;4870021;28;86730;-67
2023/04/18 04:16:43;;;;;;;10.65;4.82;;;6.80;99.90;;;;;;4866587;28;87310;-68
2023/04/18 04:19:09;;;;;;;9.57;4.38;;;6.80;99.90;;;;;;4863861;28;87757;-67
2023/04/18 04:21:34;;;;;;;12.43;4.63;;;6.80;99.90;;;;;;4863962;28;88447;-67
2023/04/18 04:24:00;;;;;;;9.98;4.80;;;6.80;99.90;;;;;;4864502;28;87190;-67
2023/04/18 04:26:26;;;;;;;11.65;4.00;;;6.80;99.90;;;;;;4864225;28;87647;-68
2023/04/18 04:28:52;;;;;;;10.65;4.88;;;6.80;99.90;;;;;;4873286;28;87428;-67
2023/04/18 04:31:18;;;;;;;9.98;4.60;;;6.80;99.90;;;;;;4864317;28;87432;-67
2023/04/18 04:33:45;;;;;;;10.00;3.83;;;6.90;99.90;;;;;;4868377;28;87451;-67
2023/04/18 04:36:13;;;;;;;8.73;3.83;;;6.90;99.90;;;;;;4865504;28;88125;-68
2023/04/18 04:38:39;;;;;;;9.07;4.15;;;6.90;99.90;;;;;;4872018;28;87860;-67
2023/04/18 04:41:08;;;;;;;10.23;3.78;;;7.00;99.60;;;;;;4869313;28;87629;-67
2023/04/18 04:43:34;;;;;;;8.18;3.85;;;7.10;99.40;;;;;;4861509;28;87552;-68
2023/04/18 04:46:02;;;;;;;6.30;3.10;;;7.10;99.60;;;;;;4859268;28;88977;-67
2023/04/18 04:48:28;;;;;;;6.78;3.33;;;7.30;99.80;;;;;;4854557;28;88869;-68
2023/04/18 04:50:59;;;;;;;6.63;3.47;;;7.70;98.10;;;;;;4868533;28;87018;-69
2023/04/18 04:53:26;;;;;;;8.60;3.00;;;8.20;96.10;;;;;;4863421;28;87266;-70
2023/04/18 04:55:52;;;;;;;5.43;2.80;;;8.90;94.30;;;;;;4853878;28;89694;-69
2023/04/18 04:58:18;;;;;;;7.85;3.13;;;9.40;92.50;;;;;;4861547;28;87817;-68
2023/04/18 05:00:44;;;;;;;5.43;2.92;;;10.00;91.10;;;;;;4861263;28;89459;-66
2023/04/18 05:03:10;;;;;;;5.85;2.53;;;10.60;90.00;;;;;;4866328;28;86646;-68
2023/04/18 05:05:36;;;;;;;10.38;2.90;;;11.00;84.90;;;;;;4863917;28;89577;-68
2023/04/18 05:08:02;;;;;;;5.72;2.50;;;11.60;82.70;;;;;;4867458;28;87346;-68
2023/04/18 05:10:28;;;;;;;12.05;3.20;;;12.10;80.20;;;;;;4848913;28;88437;-69
2023/04/18 05:12:54;;;;;;;8.15;2.20;;;12.70;77.70;;;;;;4858159;28;87533;-66
2023/04/18 05:15:19;;;;;;;5.82;2.10;;;13.20;77.10;;;;;;4858450;28;88290;-69
2023/04/18 05:17:45;;;;;;;9.05;2.55;;;13.80;72.30;;;;;;4861375;28;88216;-69
2023/04/18 05:20:11;;;;;;;8.07;2.60;;;14.20;70.20;;;;;;4852425;28;87753;-66
2023/04/18 05:22:37;;;;;;;5.30;2.42;;;14.80;69.10;;;;;;4855761;28;87492;-67
2023/04/18 05:25:03;;;;;;;8.57;2.30;;;15.30;67.00;;;;;;4851356;28;90702;-66
2023/04/18 05:27:28;;;;;;;6.05;2.85;;;15.90;65.60;;;;;;4862572;28;88438;-66
2023/04/18 05:29:54;;;;;;;6.22;2.28;;;16.30;63.00;;;;;;4861328;28;89111;-66
2023/04/18 05:32:20;;;;;;;5.70;2.15;;;16.70;62.00;;;;;;4856941;28;87630;-66
2023/04/18 05:34:46;;;;;;;6.68;2.28;;;17.50;59.50;;;;;;4849998;29;90100;-66
2023/04/18 05:37:12;;;;;;;4.43;2.20;;;18.00;57.80;;;;;;4859575;28;89199;-66
2023/04/18 05:39:38;;;;;;;2.00;1.10;;;18.10;57.90;;;;;;4861740;28;87073;-67
2023/04/18 05:42:04;;;;;;;2.50;1.17;;;18.40;55.60;;;;;;4860090;28;87341;-67
2023/04/18 05:44:30;;;;;;;3.25;1.10;;;18.90;55.70;;;;;;4853845;28;88702;-67
2023/04/18 05:46:55;;;;;;;3.42;1.60;;;19.50;53.80;;;;;;4864165;28;87898;-67
2023/04/18 05:49:21;;;;;;;3.22;1.30;;;20.10;52.50;;;;;;4861793;29;87269;-67
2023/04/18 05:51:48;;;;;;;4.75;1.45;;;19.90;50.90;;;;;;4874950;28;86838;-67
2023/04/18 05:54:15;;;;;;;2.72;1.50;;;19.60;51.00;;;;;;4863384;28;87676;-67
2023/04/18 05:56:41;;;;;;;4.10;1.58;;;19.30;52.20;;;;;;4872746;28;87920;-67
2023/04/18 05:59:06;;;;;;;13.77;2.33;;;19.80;52.90;;;;;;4861430;29;88388;-67
2023/04/18 06:01:32;;;;;;;5.63;1.60;;;20.30;50.20;;;;;;4868277;28;88519;-67
2023/04/18 06:03:58;;;;;;;7.30;1.88;;;20.90;49.90;;;;;;4853017;29;87575;-67
2023/04/18 06:06:23;;;;;;;3.35;1.70;;;21.10;48.30;;;;;;4865037;28;87460;-67
2023/04/18 06:08:49;;;;;;;4.65;1.90;;;21.30;48.40;;;;;;4868204;28;87127;-67
2023/04/18 06:11:15;;;;;;;4.05;2.47;;;21.80;48.20;;;;;;4865059;28;87595;-67
2023/04/18 06:13:41;;;;;;;6.05;1.73;;;22.40;45.70;;;;;;4863893;28;87581;-67
2023/04/18 06:16:07;;;;;;;3.00;1.75;;;22.40;45.70;;;;;;4864360;28;87291;-67
2023/04/18 06:18:32;;;;;;;3.92;1.73;;;22.90;44.90;;;;;;4860324;28;87639;-67
2023/04/18 06:20:58;;;;;;;3.75;1.92;;;24.10;44.50;;;;;;4862427;28;87376;-68
2023/04/18 06:23:24;;;;;;;3.30;2.00;;;24.60;43.40;;;;;;4859422;28;89297;-67
2023/04/18 06:25:50;;;;;;;2.95;2.08;;;24.60;42.90;;;;;;4855348;29;89278;-68
2023/04/18 06:28:16;;;;;;;4.00;2.35;;;24.20;43.00;;;;;;4855871;29;88997;-67
2023/04/18 06:30:42;;;;;;;4.35;2.03;;;24.40;42.30;;;;;;4859580;29;87123;-67
2023/04/18 06:33:10;;;;;;;4.63;2.65;;;24.80;42.20;;;;;;4857128;29;87839;-68
2023/04/18 06:35:36;;;;;;;7.93;2.33;;;24.60;41.50;;;;;;4864060;28;87953;-68
2023/04/18 06:38:02;;;;;;;3.63;2.42;;;25.20;41.10;;;;;;4862355;28;87647;-68
2023/04/18 06:40:28;;;;;;;4.05;1.80;;;25.40;40.10;;;;;;4865886;28;88303;-68
2023/04/18 06:42:54;;;;;;;4.07;2.03;;;25.20;40.20;;;;;;4861937;28;88305;-67
2023/04/18 06:45:20;;;;;;;3.35;1.50;;;25.70;40.80;;;;;;4861705;29;87281;-67
2023/04/18 06:47:46;;;;;;;2.47;1.80;;;26.10;38.80;;;;;;4863228;28;88376;-68
2023/04/18 06:50:12;;;;;;;3.10;2.38;;;26.80;39.40;;;;;;4864396;28;87972;-68
2023/04/18 06:52:39;;;;;;;2.03;1.63;;;27.80;38.30;;;;;;4859696;28;87849;-68
2023/04/18 06:55:06;;;;;;;3.65;1.90;;;27.80;37.40;;;;;;4862074;29;87938;-67
2023/04/18 06:57:32;;;;;;;3.28;2.38;;;27.80;37.80;;;;;;4861595;29;87509;-68
2023/04/18 06:59:57;;;;;;;3.60;2.20;;;28.20;37.40;;;;;;4861959;29;87630;-68
2023/04/18 07:02:23;;;;;;;3.10;2.05;;;28.20;36.40;;;;;;4863505;28;88173;-68
2023/04/18 07:04:49;;;;;;;2.85;2.30;;;28.20;37.10;;;;;;4863260;28;87196;-68
2023/04/18 07:07:15;;;;;;;2.97;2.67;;;28.30;36.50;;;;;;4861834;28;87386;-68
2023/04/18 07:09:40;;;;;;;4.20;2.60;;;28.80;35.80;;;;;;4852336;29;87567;-68
2023/04/18 07:12:06;;;;;;;2.72;2.17;;;28.90;36.90;;;;;;4861215;29;88492;-68
2023/04/18 07:14:32;;;;;;;3.38;3.08;;;29.50;35.00;;;;;;4861420;28;88274;-68
2023/04/18 07:16:59;;;;;;;3.08;2.10;;;29.70;36.40;;;;;;4861730;29;87990;-68
2023/04/18 07:19:25;;;;;;;2.80;2.47;;;31.40;34.90;;;;;;4862148;29;87476;-69
2023/04/18 07:21:51;;;;;;;2.90;2.60;;;31.00;33.20;;;;;;4861049;29;87552;-68
2023/04/18 07:24:16;;;;;;;4.93;2.58;;;31.50;34.20;;;;;;4861323;29;88808;-69
2023/04/18 07:26:42;;;;;;;5.90;3.35;;;32.80;33.00;;;;;;4861588;29;87320;-68
2023/04/18 07:29:08;;;;;;;4.05;3.05;;;32.80;33.50;;;;;;4862798;28;86692;-69
2023/04/18 07:31:33;;;;;;;3.38;2.65;;;33.20;32.50;;;;;;4865270;28;88304;-68
2023/04/18 07:33:59;;;;;;;5.32;3.08;;;32.50;32.80;;;;;;4865028;28;87375;-68
2023/04/18 07:36:25;;;;;;;3.78;3.13;;;32.20;32.70;;;;;;4864479;28;88450;-68
2023/04/18 07:38:51;;;;;;;3.60;3.17;;;32.20;33.10;;;;;;4864812;28;87218;-68
2023/04/18 07:41:16;;;;;;;3.22;2.92;;;32.60;32.10;;;;;;4865041;29;88046;-68
2023/04/18 07:43:43;;;;;;;10.27;4.38;;;33.30;33.30;;;;;;4855762;28;87399;-69
2023/04/18 07:46:09;;;;;;;5.10;4.00;;;33.90;31.70;;;;;;4857630;29;87029;-69
2023/04/18 07:48:35;;;;;;;3.50;3.20;;;33.70;31.30;;;;;;4865413;28;87349;-69
2023/04/18 07:51:01;;;;;;;4.43;3.00;;;33.50;31.40;;;;;;4864313;28;87608;-68
2023/04/18 07:53:27;;;;;;;3.83;3.50;;;33.60;31.60;;;;;;4864148;28;88061;-68
2023/04/18 07:55:53;;;;;;;4.15;2.67;;;32.70;31.30;;;;;;4864774;29;87589;-68
2023/04/18 07:58:19;;;;;;;3.15;2.80;;;31.50;32.20;;;;;;4864749;28;87376;-68
2023/04/18 08:00:45;;;;;;;3.92;2.95;;;31.90;33.00;;;;;;4863734;28;88738;-69
2023/04/18 08:03:12;;;;;;;4.03;3.05;;;32.20;31.70;;;;;;4880464;28;89577;-68
2023/04/18 08:05:38;;;;;;;4.70;3.08;;;31.60;32.60;;;;;;4877956;28;87278;-68
2023/04/18 08:08:09;;;;;;;4.85;3.47;;;31.70;32.90;;;;;;4876726;28;87531;-68
2023/04/18 08:10:35;;;;;;;5.55;3.67;;;32.20;32.50;;;;;;4883288;28;87316;-69
2023/04/18 08:13:02;;;;;;;3.42;3.13;;;33.20;31.90;;;;;;4875564;28;88387;-68
2023/04/18 08:15:28;;;;;;;4.60;3.45;;;33.40;31.50;;;;;;4864254;28;87281;-69
2023/04/18 08:17:56;;;;;;;4.20;3.75;;;34.60;31.70;;;;;;4863233;28;87059;-69
2023/04/18 08:20:22;;;;;;;4.72;3.63;;;35.60;30.90;;;;;;4874273;28;88991;-69
2023/04/18 08:22:48;;;;;;;5.95;3.40;;;35.70;30.40;;;;;;4882721;28;88538;-69
2023/04/18 08:25:13;;;;;;;5.70;4.20;;;36.30;30.00;;;;;;4882624;28;88289;-69
2023/04/18 08:27:39;;;;;;;4.18;3.78;;;36.20;29.90;;;;;;4870196;28;87584;-69
2023/04/18 08:30:06;;;;;;;4.18;2.97;;;37.00;30.00;;;;;;4875421;28;88068;-69
2023/04/18 08:32:32;;;;;;;5.15;3.35;;;37.40;29.10;;;;;;4870080;28;87570;-69
2023/04/18 08:34:57;;;;;;;3.35;3.05;;;36.50;29.30;;;;;;4870443;28;88774;-69
2023/04/18 08:37:23;;;;;;;4.13;3.72;;;37.40;29.30;;;;;;4865745;28;87392;-69
2023/04/18 08:39:49;;;;;;;5.00;3.55;;;38.20;29.00;;;;;;4862941;28;88094;-69
2023/04/18 08:42:18;;;;;;;5.72;3.42;;;38.50;28.60;;;;;;4874607;28;87967;-69
2023/04/18 08:44:47;;;;;;;3.60;3.30;;;38.20;27.80;;;;;;4857640;28;87476;-69
2023/04/18 08:47:14;;;;;;;6.60;4.15;;;39.00;28.20;;;;;;4865479;28;87276;-69
2023/04/18 08:49:41;;;;;;;4.35;3.97;;;38.40;27.90;;;;;;4869966;28;88330;-69
2023/04/18 08:52:13;;;;;;;3.67;3.38;;;38.90;27.50;;;;;;4855289;29;89284;-69
2023/04/18 08:54:43;;;;;;;4.47;3.60;;;38.80;27.70;;;;;;4863475;28;87456;-69
2023/04/18 08:57:11;;;;;;;5.03;4.53;;;38.20;28.60;;;;;;4872545;28;87378;-69
2023/04/18 08:59:37;;;;;;;4.03;3.30;;;38.70;28.90;;;;;;4882046;28;88820;-69
2023/04/18 09:02:05;;;;;;;3.50;3.20;;;39.20;27.80;;;;;;4881595;28;87527;-69
2023/04/18 09:04:36;;;;;;;4.57;4.18;;;39.40;28.00;;;;;;4882818;28;87324;-69
2023/04/18 09:07:04;;;;;;;4.55;3.90;;;39.60;27.20;;;;;;4870783;28;86689;-69
2023/04/18 09:09:50;;;;;;;3.95;3.65;;;40.00;27.30;;;;;;4862014;28;87742;-69
2023/04/18 09:12:21;;;;;;;4.00;3.70;;;40.00;27.30;;;;;;4863334;29;88421;-69
2023/04/18 09:14:53;;;;;;;3.58;3.28;;;40.10;28.50;;;;;;4862618;28;88251;-69
2023/04/18 09:17:32;;;;;;;6.20;5.70;;;39.90;28.10;;;;;;4863813;29;87334;-69
2023/04/18 09:19:59;;;;;;;4.60;4.20;;;39.80;27.30;;;;;;4856956;29;88234;-69
2023/04/18 09:22:25;;;;;;;4.03;3.53;;;39.90;28.30;;;;;;4858276;28;88366;-69
2023/04/18 09:24:54;;;;;;;3.38;3.08;;;39.70;27.80;;;;;;4859422;28;87335;-69
2023/04/18 09:27:23;;;;;;;5.43;5.00;;;38.90;27.20;;;;;;4876743;28;88726;-69
2023/04/18 09:29:51;;;;;;;3.35;2.53;;;39.40;26.80;;;;;;4873611;28;87514;-69
2023/04/18 09:32:25;;;;;;;3.90;3.58;;;39.50;27.40;;;;;;4847517;28;88114;-69
2023/04/18 09:34:53;;;;;;;;;;;39.80;26.50;;;;;;4872631;28;88917;-69
2023/04/18 09:37:19;;;;;;;3.13;2.78;;;39.40;26.70;;;;;;4864550;29;87337;-70
2023/04/18 09:39:45;;;;;;;3.63;3.30;;;39.40;26.50;;;;;;4864472;28;89205;-69
2023/04/18 09:42:12;;;;;;;4.07;3.28;;;39.50;27.00;;;;;;4866688;28;88678;-69
2023/04/18 09:45:06;;;;;;;3.45;3.15;;;39.60;28.50;;;;;;4863481;28;87340;-69
2023/04/18 09:47:34;;;;;;;3.35;3.05;;;40.20;26.80;;;;;;4874991;28;87365;-69
2023/04/18 09:50:01;;;;;;;3.13;2.83;;;40.40;26.60;;;;;;4864552;28;88172;-68
2023/04/18 09:52:35;;;;;;;3.17;2.88;;;39.40;27.60;;;;;;4856188;28;87914;-69
2023/04/18 09:55:03;;;;;;;4.25;3.40;;;39.20;27.90;;;;;;4874079;28;87707;-69
2023/04/18 09:57:31;;;;;;;2.47;2.28;;;39.30;27.50;;;;;;4882164;28;86435;-69
2023/04/18 10:00:07;;;;;;;3.38;3.08;;;39.20;27.10;;;;;;4853325;28;88156;-68
2023/04/18 10:03:02;;;;;;;5.55;5.15;;;39.40;28.30;;;;;;4854934;28;88542;-69
2023/04/18 10:05:34;;;;;;;4.05;2.50;;;39.10;27.40;;;;;;4849875;29;88373;-69
2023/04/18 10:08:00;;;;;;;2.67;2.47;;;38.50;27.30;;;;;;4861941;28;87555;-69
2023/04/18 10:10:26;;;;;;;4.65;2.30;;;37.80;28.50;;;;;;4866123;28;87892;-68
2023/04/18 10:12:54;;;;;;;2.45;2.25;;;36.70;28.20;;;;;;4862337;29;87767;-68
2023/04/18 10:15:21;;;;;;;;;;;35.40;29.40;;;;;;4851604;29;87399;-68
2023/04/18 10:17:53;;;;;;;3.20;1.98;;;33.70;31.10;;;;;;4852611;29;89317;-67
2023/04/18 10:20:22;;;;;;;2.75;1.90;;;32.00;33.20;;;;;;4855161;28;89071;-67
2023/04/18 10:22:48;;;;;;;3.75;1.65;;;30.60;34.00;;;;;;4857711;28;88254;-67
2023/04/18 10:25:37;;;;;;;2.38;1.63;;;28.90;34.80;;;;;;4851296;28;87990;-67
2023/04/18 10:28:04;;;;;;;2.28;1.73;;;27.60;39.40;;;;;;4838852;29;87581;-67
2023/04/18 10:30:39;;;;;;;2.15;1.45;;;26.40;37.80;;;;;;4837248;29;89962;-67
2023/04/18 10:33:37;;;;;;;3.85;1.50;;;25.50;41.30;;;;;;4858406;29;89559;-67
2023/04/18 10:36:09;;;;;;;3.08;1.42;;;24.90;42.10;;;;;;4853853;29;87575;-69
2023/04/18 10:38:43;;;;;;;1.90;1.15;;;24.40;42.40;;;;;;4853625;29;87765;-66
2023/04/18 10:41:32;;;;;;;2.05;1.25;;;24.10;43.80;;;;;;4855938;29;89101;-67
2023/04/18 10:44:07;;;;;;;;;;;23.70;43.90;;;;;;4852517;29;87981;-67
2023/04/18 10:46:37;;;;;;;2.33;1.02;;;23.30;45.90;;;;;;4861039;29;88551;-67
2023/04/18 10:49:16;;;;;;;2.75;1.20;;;22.80;47.30;;;;;;4860546;28;87143;-66
2023/04/18 10:51:48;;;;;;;2.00;1.30;;;22.40;46.70;;;;;;4851730;29;88455;-66
2023/04/18 10:54:27;;;;;;;2.10;1.40;;;22.30;47.20;;;;;;4848547;28;87801;-66
2023/04/18 10:56:54;;;;;;;3.63;1.58;;;22.00;47.90;;;;;;4862864;28;88501;-68
2023/04/18 10:59:23;;;;;;;1.88;1.20;;;21.80;48.50;;;;;;4865722;28;87563;-66
2023/04/18 11:01:52;;;;;;;3.00;1.85;;;21.60;49.20;;;;;;4851919;28;88264;-68
2023/04/18 11:04:17;;;;;;;3.63;1.90;;;21.30;49.40;;;;;;4850716;28;87701;-69
2023/04/18 11:06:53;;;;;;;2.40;1.30;;;21.20;50.40;;;;;;4857746;28;88331;-68
2023/04/18 11:09:20;;;;;;;2.88;1.25;;;20.90;51.10;;;;;;4878974;28;87455;-69
2023/04/18 11:12:01;;;;;;;2.72;1.38;;;21.00;50.70;;;;;;4875344;28;87758;-68
2023/04/18 11:15:04;;;;;;;2.60;1.75;;;21.00;50.20;;;;;;4864903;28;87849;-68
2023/04/18 11:17:31;;;;;;;3.05;1.52;;;21.00;51.40;;;;;;4850386;28;87622;-68
2023/04/18 11:20:08;;;;;;;6.07;1.90;;;20.70;52.80;;;;;;4875108;28;87129;-68
2023/04/18 11:22:48;;;;;;;3.38;1.40;;;20.80;51.30;;;;;;4877278;28;90635;-69
2023/04/18 11:25:15;;;;;;;5.57;2.00;;;20.80;52.10;;;;;;4862214;28;89625;-68
2023/04/18 11:27:45;;;;;;;4.32;1.75;;;20.50;52.00;;;;;;4871023;28;87533;-68
2023/04/18 11:30:13;;;;;;;3.47;1.75;;;20.50;54.10;;;;;;4872598;28;87390;-68
2023/04/18 11:32:39;;;;;;;3.85;1.85;;;20.70;53.20;;;;;;4870736;28;87960;-68
2023/04/18 11:35:08;;;;;;;3.70;1.80;;;20.60;52.90;;;;;;4871840;28;88687;-68
2023/04/18 11:37:35;;;;;;;2.83;1.73;;;20.60;53.60;;;;;;4864318;28;87371;-68
2023/04/18 11:40:01;;;;;;;4.18;1.80;;;20.50;53.40;;;;;;4873334;28;86831;-68
2023/04/18 11:42:27;;;;;;;4.22;1.90;;;20.60;53.30;;;;;;4869791;28;88240;-68
2023/04/18 11:44:53;;;;;;;4.40;2.22;;;20.50;53.20;;;;;;4885727;28;87467;-68
2023/04/18 11:47:23;;;;;;;3.03;1.73;;;20.50;53.80;;;;;;4873064;28;88355;-68
2023/04/18 11:49:55;;;;;;;3.17;1.50;;;20.50;53.50;;;;;;4846387;29;89044;-68
2023/04/18 11:52:20;;;;;;;3.55;1.95;;;20.40;54.60;;;;;;4876523;28;88340;-68
2023/04/18 11:54:46;;;;;;;3.35;1.63;;;20.40;53.50;;;;;;4879940;28;87619;-68
2023/04/18 11:57:22;;;;;;;9.00;1.83;;;20.50;54.10;;;;;;4873403;28;87472;-68
2023/04/18 11:59:50;;;;;;;3.25;1.83;;;20.50;54.40;;;;;;4867290;28;87660;-68
2023/04/18 12:02:16;;;;;;;3.13;1.70;;;20.50;53.90;;;;;;4876322;28;88136;-68
2023/04/18 12:04:58;;;;;;;4.03;2.67;;;20.60;53.20;;;;;;4871091;28;87838;-68
2023/04/18 12:07:31;;;;;;;3.42;1.63;;;20.70;53.70;;;;;;4873621;28;87064;-68
2023/04/18 12:09:57;;;;;;;3.22;1.60;;;20.80;53.50;;;;;;4887149;28;87471;-68
2023/04/18 12:12:23;;;;;;;2.25;1.30;;;20.70;53.80;;;;;;4885717;28;89610;-68
2023/04/18 12:15:01;;;;;;;4.57;2.45;;;20.70;53.90;;;;;;4876924;28;88384;-68
2023/04/18 12:17:28;;;;;;;4.70;1.77;;;20.80;52.50;;;;;;4882147;28;87376;-68
2023/04/18 12:19:54;;;;;;;3.15;1.70;;;20.70;54.50;;;;;;4865550;28;87104;-68
2023/04/18 12:22:35;;;;;;;3.20;1.55;;;20.80;53.50;;;;;;4864381;29;87529;-68
2023/04/18 12:25:18;;;;;;;3.05;1.73;;;20.70;52.50;;;;;;4866149;28;88232;-68
2023/04/18 12:27:54;;;;;;;4.68;1.40;;;20.50;53.60;;;;;;4883162;28;87319;-68
2023/04/18 12:30:21;;;;;;;2.80;1.70;;;20.60;54.60;;;;;;4883611;28;86765;-69
2023/04/18 12:32:52;;;;;;;3.10;1.40;;;20.80;55.40;;;;;;4860184;28;88164;-69
2023/04/18 12:35:18;;;;;;;2.65;1.27;;;20.90;52.90;;;;;;4863870;28;87494;-68
2023/04/18 12:37:48;;;;;;;2.72;1.52;;;20.80;53.10;;;;;;4874524;28;88443;-68
2023/04/18 12:40:15;;;;;;;2.45;1.17;;;20.80;51.10;;;;;;4882894;28;87572;-68
2023/04/18 12:42:41;;;;;;;2.70;1.50;;;20.80;54.30;;;;;;4879265;28;88652;-68
2023/04/18 12:45:11;;;;;;;2.03;1.10;;;20.80;53.60;;;;;;4881360;28;87769;-69
2023/04/18 12:47:38;;;;;;;3.97;1.67;;;20.80;53.20;;;;;;4877097;28;87402;-68
2023/04/18 12:50:06;;;;;;;4.60;1.52;;;20.80;53.00;;;;;;4859002;28;88213;-68
2023/04/18 12:52:32;;;;;;;2.53;1.17;;;20.90;54.10;;;;;;4872320;28;89426;-68
2023/04/18 12:54:57;;;;;;;2.92;1.42;;;20.90;52.90;;;;;;4862693;28;88023;-68
2023/04/18 12:57:24;;;;;;;3.15;1.65;;;21.00;53.80;;;;;;4865737;28;87102;-68
2023/04/18 12:59:50;;;;;;;2.67;1.55;;;21.00;54.00;;;;;;4863801;28;87385;-68
2023/04/18 13:02:15;;;;;;;5.45;1.25;;;21.00;52.00;;;;;;4871609;28;89388;-68
2023/04/18 13:04:41;;;;;;;2.53;1.23;;;20.70;53.20;;;;;;4882701;28;89117;-68
2023/04/18 13:07:07;;;;;;;2.80;1.23;;;20.70;52.80;;;;;;4865835;28;87532;-68
2023/04/18 13:09:33;;;;;;;4.32;1.02;;;20.80;53.00;;;;;;4871587;28;87814;-69
2023/04/18 13:11:58;;;;;;;4.40;1.75;;;20.80;54.10;;;;;;4865329;28;87637;-68
2023/04/18 13:14:25;;;;;;;17.60;1.60;;;20.70;53.90;;;;;;4859707;28;88178;-68
2023/04/18 13:16:51;;;;;;;1.90;1.05;;;20.70;52.60;;;;;;4877076;28;87394;-68
2023/04/18 13:19:16;;;;;;;2.20;1.27;;;20.80;52.20;;;;;;4872834;28;86678;-68
2023/04/18 13:21:42;;;;;;;2.15;1.05;;;20.80;54.60;;;;;;4865283;28;87755;-68
2023/04/18 13:24:07;;;;;;;1.80;1.00;;;20.70;53.30;;;;;;4860106;28;88392;-68
2023/04/18 13:26:34;;;;;;;3.38;1.50;;;20.80;50.40;;;;;;4866288;28;88252;-68
2023/04/18 13:29:01;;;;;;;4.80;1.38;;;20.70;54.30;;;;;;4863529;28;87815;-68
2023/04/18 13:31:27;;;;;;;3.00;1.27;;;20.80;52.70;;;;;;4862579;29;89112;-68
2023/04/18 13:33:53;;;;;;;2.85;1.50;;;20.80;52.70;;;;;;4863102;28;87687;-68
2023/04/18 13:36:19;;;;;;;2.53;1.35;;;20.80;53.20;;;;;;4863139;28;87483;-68
2023/04/18 13:38:45;;;;;;;3.70;1.55;;;20.90;53.60;;;;;;4873143;28;87789;-68
2023/04/18 13:41:10;;;;;;;3.58;1.02;;;20.90;53.00;;;;;;4864535;28;87297;-68
2023/04/18 13:43:36;;;;;;;1.70;0.95;;;20.90;53.00;;;;;;4871151;28;87362;-68
2023/04/18 13:46:02;;;;;;;2.45;1.35;;;20.80;52.10;;;;;;4864362;28;87467;-68
2023/04/18 13:48:27;;;;;;;3.85;1.38;;;20.80;52.80;;;;;;4874076;28;87390;-68
2023/04/18 13:50:53;;;;;;;3.20;1.33;;;20.80;52.50;;;;;;4879416;28;89763;-68
2023/04/18 13:53:19;;;;;;;2.65;1.42;;;20.80;54.00;;;;;;4881506;28;88894;-68
2023/04/18 13:55:45;;;;;;;3.28;1.50;;;20.50;52.70;;;;;;4870837;28;87411;-68
2023/04/18 13:58:11;;;;;;;3.33;1.35;;;20.60;53.10;;;;;;4863672;28;87272;-68
2023/04/18 14:00:37;;;;;;;3.40;1.23;;;20.70;52.50;;;;;;4862540;29;87578;-68
2023/04/18 14:03:03;;;;;;;2.83;1.42;;;20.80;52.80;;;;;;4860963;28;87302;-68
2023/04/18 14:05:30;;;;;;;3.00;1.60;;;20.70;51.20;;;;;;4860656;29;87648;-68
2023/04/18 14:08:02;;;;;;;8.63;1.60;;;20.60;54.10;;;;;;4862536;29;86573;-68
2023/04/18 14:10:29;;;;;;;2.38;1.45;;;20.50;53.00;;;;;;4860214;29;88847;-68
2023/04/18 14:12:55;;;;;;;3.42;1.35;;;20.40;55.00;;;;;;4862548;29;87853;-69
2023/04/18 14:15:21;;;;;;;2.67;1.58;;;20.40;54.50;;;;;;4861034;28;89094;-69
2023/04/18 14:17:47;;;;;;;5.28;1.88;;;20.30;53.40;;;;;;4861185;29;87502;-68
2023/04/18 14:20:18;;;;;;;2.78;1.45;;;20.30;54.30;;;;;;4861240;28;88030;-68
2023/04/18 14:22:44;;;;;;;3.75;1.98;;;20.50;53.00;;;;;;4865851;28;87439;-68
2023/04/18 14:25:10;;;;;;;2.92;1.52;;;20.40;52.50;;;;;;4862335;29;87545;-68
2023/04/18 14:27:36;;;;;;;2.58;1.50;;;20.40;52.80;;;;;;4866419;28;87512;-68
2023/04/18 14:30:05;;;;;;;3.03;1.70;;;20.40;53.30;;;;;;4867393;28;87199;-68
2023/04/18 14:32:31;;;;;;;3.75;1.38;;;20.40;53.70;;;;;;4860993;29;86629;-68
2023/04/18 14:34:57;;;;;;;2.95;1.83;;;20.50;55.00;;;;;;4862519;29;87305;-68
2023/04/18 14:37:24;;;;;;;5.10;2.13;;;20.60;53.30;;;;;;4859483;29;87519;-68
2023/04/18 14:39:49;;;;;;;5.03;1.73;;;20.60;53.20;;;;;;4855156;29;89427;-68
2023/04/18 14:42:16;;;;;;;3.58;1.60;;;20.40;53.20;;;;;;4860198;29;87871;-68
2023/04/18 14:44:42;;;;;;;3.15;1.73;;;20.40;54.20;;;;;;4861433;29;87438;-68
2023/04/18 14:47:08;;;;;;;2.65;1.70;;;20.40;52.10;;;;;;4865574;28;87508;-68
2023/04/18 14:49:33;;;;;;;3.20;1.42;;;20.20;54.00;;;;;;4854667;28;87633;-68
2023/04/18 14:51:59;;;;;;;4.85;1.98;;;20.10;54.00;;;;;;4861496;29;87453;-68
2023/04/18 14:54:24;;;;;;;5.18;1.70;;;19.80;54.60;;;;;;4860635;29;87025;-68
2023/04/18 14:56:50;;;;;;;3.75;1.80;;;19.50;55.80;;;;;;4862280;29;86788;-68
2023/04/18 14:59:16;;;;;;;4.53;1.65;;;19.50;56.10;;;;;;4857899;28;88147;-68
2023/04/18 15:01:42;;;;;;;3.90;1.52;;;19.40;55.00;;;;;;4849374;28;87515;-68
2023/04/18 15:04:07;;;;;;;3.30;1.92;;;19.30;54.60;;;;;;4854778;28;88419;-68
2023/04/18 15:06:33;;;;;;;6.32;1.70;;;19.20;55.10;;;;;;4852426;28;87913;-68
2023/04/18 15:08:59;;;;;;;3.72;2.08;;;19.10;56.10;;;;;;4846772;29;90041;-68
2023/04/18 15:11:26;;;;;;;3.45;1.95;;;19.00;55.30;;;;;;4848297;28;87765;-68
2023/04/18 15:13:51;;;;;;;3.15;1.75;;;19.00;55.40;;;;;;4859585;28;89711;-68
2023/04/18 15:16:17;;;;;;;3.20;1.73;;;19.10;54.80;;;;;;4857031;28;87063;-68
2023/04/18 15:18:43;;;;;;;6.70;1.77;;;19.20;55.30;;;;;;4849156;28;88683;-68
2023/04/18 15:21:09;;;;;;;3.97;1.73;;;19.30;54.20;;;;;;4854594;28;87930;-68
2023/04/18 15:23:35;;;;;;;3.38;1.58;;;19.40;54.40;;;;;;4859573;28;87598;-68
2023/04/18 15:26:04;;;;;;;2.83;1.63;;;19.40;54.40;;;;;;4859609;29;87582;-68
2023/04/18 15:28:30;;;;;;;4.22;1.50;;;19.30;54.40;;;;;;4859188;29;89522;-68
2023/04/18 15:30:56;;;;;;;3.60;1.70;;;19.20;53.70;;;;;;4859403;28;88341;-68
2023/04/18 15:33:23;;;;;;;3.80;1.58;;;19.20;54.70;;;;;;4852245;29;87917;-68
2023/04/18 15:35:49;;;;;;;3.10;1.58;;;19.10;53.60;;;;;;4851954;29;87660;-68
2023/04/18 15:38:15;;;;;;;4.78;1.60;;;19.20;53.70;;;;;;4854702;28;88213;-68
2023/04/18 15:40:42;;;;;;;3.83;1.52;;;19.20;55.00;;;;;;4850933;29;88131;-68
2023/04/18 15:43:08;;;;;;;3.70;1.52;;;19.10;54.30;;;;;;4852231;28;89421;-68
2023/04/18 15:45:35;;;;;;;3.30;1.35;;;18.90;54.30;;;;;;4858478;29;86642;-68
2023/04/18 15:48:00;;;;;;;6.78;1.55;;;18.80;54.20;;;;;;4853152;28;88877;-68
2023/04/18 15:50:26;;;;;;;5.53;1.75;;;18.70;55.10;;;;;;4849923;29;87742;-67